Flight Track Log - Related Links

Times and Time Zones

All times are in EST time to prevent confusion due to time zone crossing. See the KAL1917 flight status page for this flight to view local times or setup timezone preferences in your user account.


Time Position Orientation Groundspeed Altitude Reporting Facility
EST Latitude Longitude Course Direction KTS MPH feet Rate Location/Type
Mon 01:24:00 AM 35.0157 126.5695 182° South  Level Estimated
Mon 01:25:00 AM 34.9269 126.5649 182° South  Level Estimated
Mon 01:26:00 AM 34.8381 126.5603 182° South  Level Estimated
Mon 01:27:00 AM 34.7492 126.5557 182° South  Level Estimated
Mon 01:28:00 AM 34.6604 126.5512 182° South  Level Estimated
Mon 01:29:00 AM 34.5716 126.5466 182° South  Level Estimated
Mon 01:30:00 AM 34.4828 126.5421 182° South  Level Estimated
Mon 01:31:00 AM 34.3940 126.5375 182° South  Level Estimated
Mon 01:32:00 AM 34.3052 126.5330 182° South  Level Estimated
Mon 01:33:00 AM 34.2164 126.5285 182° South  Level Estimated
Mon 01:34:00 AM 34.1276 126.5240 182° South  Level Estimated
Mon 01:35:00 AM 34.0388 126.5195 182° South  Level Estimated
Mon 01:36:00 AM 33.9500 126.5150 182° South  Level Estimated
Mon 01:37:00 AM 33.8611 126.5106 182° South  Level Estimated
Mon 01:38:00 AM 33.7723 126.5061 182° South  Level Estimated
Mon 01:39:00 AM 33.6835 126.5016 182° South  Level Estimated
Mon 01:40:00 AM 33.5947 126.4972 182° South  Level Estimated
Mon 01:41:00 AM 33.5113 126.4930 182° South  Level Estimated
Mon 01:42:00 AM 33.5113 126.4930 203° Southwest  Level Estimated
Mon 01:43:00 AM 33.5113 126.4930 203° Southwest  Level Estimated
Mon 01:44:00 AM 33.5113 126.4930 203° Southwest  Level Estimated
Mon 01:45:00 AM 33.5113 126.4930 203° Southwest  Level Estimated
Mon 01:46:00 AM 33.5113 126.4930 203° Southwest  Level Estimated
Mon 01:47:00 AM 33.5113 126.4930 203° Southwest  Level Estimated
Mon 01:48:00 AM 33.5113 126.4930 203° Southwest  Level Estimated
Mon 01:49:00 AM 33.5113 126.4930 203° Southwest  Level Estimated

Login

Don't have an account? Register now (free) for customized features, flight alerts, and more!